Langara, Canada
Current Conditions -  °F | °C
As of 6:00 PM on Saturday 22 Nov 2014 (Local Time) from CZMT Reporting Station
Overcast Overcast  
Wind Chill: 36°   Ceiling: 3000
Heat Index: 41°   Visibility: 15mi
Dew Point: 39°   Wind: 8mph
Humidity: 93%   Direction: 170°S
Pressure: 29.53"   Gusts: NA
Location:  54.23°N, 133°W
Report Text: CZMT 230200Z 17007KT 15SM SCT015TCU OVC030 05/04 A2953 RMK TCU4SC4 LAST OBS/NEXT 231500 UTC SLP001
Loading
Personal Weather Stations






























Interactive Weather Map New forecast layout! Learn more

10-Day Weather Forecast

Advertisements
Track Severe Weather on mobile